createdAt,value
2022-11-06T00:01:10.350Z,26.45
2022-11-06T00:03:37.093Z,27.05
2022-11-06T00:06:30.645Z,27.40
2022-11-06T00:08:59.800Z,27.50
2022-11-06T00:11:26.688Z,27.63
2022-11-06T00:13:53.950Z,26.83
2022-11-06T00:16:21.185Z,25.35
2022-11-06T00:18:48.213Z,26.30
2022-11-06T00:21:17.898Z,26.85
2022-11-06T00:23:45.513Z,29.05
2022-11-06T00:26:17.929Z,27.95
2022-11-06T00:28:44.781Z,28.98
2022-11-06T00:31:14.428Z,26.73
2022-11-06T00:33:41.546Z,27.60
2022-11-06T00:36:13.333Z,27.30
2022-11-06T00:38:39.978Z,26.15
2022-11-06T00:41:10.088Z,22.58
2022-11-06T00:43:37.308Z,22.08
2022-11-06T00:46:05.949Z,22.17
2022-11-06T00:48:33.673Z,23.20
2022-11-06T00:51:05.289Z,22.83
2022-11-06T00:53:31.990Z,22.98
2022-11-06T00:56:10.821Z,22.17
2022-11-06T00:58:37.433Z,22.38
2022-11-06T01:01:16.138Z,24.27
2022-11-06T01:03:45.346Z,25.00
2022-11-06T01:06:23.096Z,24.42
2022-11-06T01:08:51.583Z,23.60
2022-11-06T01:11:19.680Z,23.70
2022-11-06T01:13:49.136Z,25.73
2022-11-06T01:16:16.211Z,24.38
2022-11-06T01:18:44.535Z,25.70
2022-11-06T01:21:26.277Z,25.15
2022-11-06T01:23:55.085Z,23.98
2022-11-06T01:26:37.199Z,24.08
2022-11-06T01:29:05.886Z,24.73
2022-11-06T01:31:34.140Z,24.63
2022-11-06T01:34:02.258Z,23.73
2022-11-06T01:36:30.127Z,22.33
2022-11-06T01:38:59.641Z,22.23
2022-11-06T01:41:32.577Z,22.13
2022-11-06T01:44:06.168Z,23.27
2022-11-06T01:46:36.522Z,21.77
2022-11-06T01:49:11.621Z,21.27
2022-11-06T01:51:52.006Z,20.50
2022-11-06T01:54:40.014Z,22.77
2022-11-06T01:57:07.663Z,22.15
2022-11-06T01:59:37.143Z,21.23
2022-11-06T02:02:04.589Z,20.50
2022-11-06T02:04:37.784Z,15.10
2022-11-06T02:07:05.605Z,12.40
2022-11-06T02:09:34.206Z,10.55
2022-11-06T02:12:12.302Z,9.35
2022-11-06T02:15:05.961Z,8.20
2022-11-06T02:17:32.548Z,8.82
2022-11-06T02:20:03.335Z,6.38
2022-11-06T02:23:05.890Z,7.38
2022-11-06T02:25:45.130Z,5.25
2022-11-06T02:28:38.049Z,5.95
2022-11-06T02:31:11.359Z,4.22
2022-11-06T02:33:46.390Z,5.00
2022-11-06T02:36:19.671Z,5.53
2022-11-06T02:39:09.890Z,5.60
2022-11-06T02:41:40.985Z,4.40
2022-11-06T02:44:11.990Z,4.90
2022-11-06T02:47:01.525Z,4.88
2022-11-06T02:50:03.960Z,5.38
2022-11-06T02:53:01.698Z,3.80
2022-11-06T02:55:42.304Z,5.05
2022-11-06T02:58:16.536Z,3.63
2022-11-06T03:00:50.667Z,3.65
2022-11-06T03:03:25.450Z,4.03
2022-11-06T03:05:58.894Z,2.58
2022-11-06T03:08:44.555Z,1.02
2022-11-06T03:11:22.453Z,2.30
2022-11-06T03:14:07.715Z,3.33
2022-11-06T03:17:11.285Z,4.40
2022-11-06T03:20:06.206Z,3.80
2022-11-06T03:22:40.437Z,4.10
2022-11-06T03:25:20.341Z,4.25
2022-11-06T03:27:58.400Z,6.47
2022-11-06T03:30:25.131Z,6.85
2022-11-06T03:33:02.525Z,6.50
2022-11-06T03:35:45.972Z,7.20
2022-11-06T03:38:20.554Z,6.50
2022-11-06T03:40:53.800Z,6.13
2022-11-06T03:43:26.785Z,6.30
2022-11-06T03:45:56.013Z,5.75
2022-11-06T03:48:42.472Z,6.60
2022-11-06T03:51:22.385Z,6.10
2022-11-06T03:53:53.755Z,5.55
2022-11-06T03:56:35.507Z,6.28
2022-11-06T03:59:06.180Z,5.90
2022-11-06T04:01:37.512Z,5.85
2022-11-06T04:04:17.848Z,6.00
2022-11-06T04:06:51.552Z,6.13
2022-11-06T04:09:38.930Z,5.82
2022-11-06T04:12:26.756Z,5.93
2022-11-06T04:14:56.478Z,5.93
2022-11-06T04:17:26.462Z,6.20
2022-11-06T04:19:57.606Z,5.90
2022-11-06T04:22:26.819Z,6.63
2022-11-06T04:25:22.613Z,5.90
2022-11-06T04:28:08.130Z,5.70
2022-11-06T04:30:51.901Z,6.03
2022-11-06T04:33:29.051Z,6.25
2022-11-06T04:36:02.183Z,5.82
2022-11-06T04:38:52.792Z,5.28
2022-11-06T04:41:36.486Z,5.68
2022-11-06T04:44:17.730Z,5.13
2022-11-06T04:46:58.358Z,6.43
2022-11-06T04:49:26.988Z,4.82
2022-11-06T04:51:54.213Z,7.53
2022-11-06T04:54:21.295Z,7.57
2022-11-06T04:56:48.070Z,7.72
2022-11-06T04:59:16.634Z,5.68
2022-11-06T05:01:44.252Z,5.03
2022-11-06T05:04:12.115Z,7.47
2022-11-06T05:06:38.730Z,9.02
2022-11-06T05:09:05.533Z,7.93
2022-11-06T05:11:32.150Z,4.03
2022-11-06T05:13:58.697Z,8.55
2022-11-06T05:16:25.381Z,8.15
2022-11-06T05:18:51.905Z,6.40
2022-11-06T05:21:37.336Z,9.60
2022-11-06T05:24:04.278Z,9.13
2022-11-06T05:26:30.872Z,7.93
2022-11-06T05:28:57.549Z,6.82
2022-11-06T05:31:24.964Z,9.15
2022-11-06T05:33:51.573Z,8.77
2022-11-06T05:36:18.284Z,8.13
2022-11-06T05:38:44.830Z,8.98
2022-11-06T05:41:11.476Z,7.85
2022-11-06T05:43:38.214Z,9.15
2022-11-06T05:46:04.972Z,9.23
2022-11-06T05:48:31.710Z,10.20
2022-11-06T05:51:03.252Z,9.05
2022-11-06T05:53:31.527Z,9.68
2022-11-06T05:55:58.402Z,8.32
2022-11-06T05:58:25.729Z,9.07
2022-11-06T06:00:52.676Z,7.88
2022-11-06T06:03:21.211Z,7.80
2022-11-06T06:05:48.293Z,8.05
2022-11-06T06:08:15.311Z,6.88
2022-11-06T06:10:43.361Z,7.55
2022-11-06T06:13:10.457Z,6.47
2022-11-06T06:15:41.911Z,7.93
2022-11-06T06:18:09.699Z,8.13
2022-11-06T06:20:36.850Z,8.20
2022-11-06T06:23:03.949Z,7.60
2022-11-06T06:25:31.112Z,7.05
2022-11-06T06:27:58.304Z,7.80
2022-11-06T06:30:25.715Z,9.38
2022-11-06T06:32:53.461Z,9.27
2022-11-06T06:35:20.509Z,8.82
2022-11-06T06:37:56.014Z,10.00
2022-11-06T06:40:23.296Z,10.52
2022-11-06T06:42:50.031Z,9.38
2022-11-06T06:45:17.145Z,9.57
2022-11-06T06:47:43.942Z,8.93
2022-11-06T06:50:10.815Z,10.30
2022-11-06T06:52:37.460Z,10.73
2022-11-06T06:55:05.839Z,9.90
2022-11-06T06:57:32.552Z,9.30
2022-11-06T06:59:59.106Z,10.98
2022-11-06T07:02:25.795Z,8.82
2022-11-06T07:04:52.396Z,8.57
2022-11-06T07:07:18.991Z,8.35
2022-11-06T07:09:45.637Z,10.13
2022-11-06T07:12:12.230Z,9.48
2022-11-06T07:14:38.959Z,9.57
2022-11-06T07:17:05.548Z,6.30
2022-11-06T07:19:32.155Z,8.18
2022-11-06T07:21:58.739Z,9.40
2022-11-06T07:24:25.256Z,7.78
2022-11-06T07:26:51.944Z,8.90
2022-11-06T07:29:18.507Z,8.95
2022-11-06T07:31:45.082Z,10.32
2022-11-06T07:34:11.749Z,9.02
2022-11-06T07:36:38.496Z,9.43
2022-11-06T07:39:05.056Z,10.20
2022-11-06T07:41:31.646Z,10.50
2022-11-06T07:43:58.306Z,11.02
2022-11-06T07:46:25.053Z,8.95
2022-11-06T07:48:51.759Z,9.60
2022-11-06T07:51:18.360Z,10.07
2022-11-06T07:53:44.982Z,9.68
2022-11-06T07:56:11.621Z,11.05
2022-11-06T07:58:38.844Z,11.23
2022-11-06T08:01:06.141Z,10.95
2022-11-06T08:03:34.406Z,10.90
2022-11-06T08:06:05.294Z,10.63
2022-11-06T08:08:31.917Z,11.50
2022-11-06T08:11:03.198Z,11.20
2022-11-06T08:13:29.905Z,10.10
2022-11-06T08:15:56.454Z,9.98
2022-11-06T08:18:22.983Z,11.10
2022-11-06T08:20:52.951Z,9.50
2022-11-06T08:23:19.868Z,10.55
2022-11-06T08:25:46.389Z,12.23
2022-11-06T08:28:13.212Z,12.15
2022-11-06T08:30:39.971Z,11.93
2022-11-06T08:33:08.186Z,11.38
2022-11-06T08:35:35.494Z,14.32
2022-11-06T08:38:02.681Z,11.88
2022-11-06T08:40:31.232Z,14.02
2022-11-06T08:43:03.338Z,13.75
2022-11-06T08:45:30.444Z,15.43
2022-11-06T08:48:02.389Z,15.68
2022-11-06T08:50:30.165Z,18.42
2022-11-06T08:52:57.992Z,17.25
2022-11-06T08:55:24.605Z,18.33
2022-11-06T08:57:51.303Z,15.93
2022-11-06T09:00:18.020Z,18.42
2022-11-06T09:02:44.595Z,19.30
2022-11-06T09:05:11.257Z,19.52
2022-11-06T09:07:37.821Z,18.80
2022-11-06T09:10:04.897Z,18.27
2022-11-06T09:12:31.465Z,19.55
2022-11-06T09:14:58.071Z,19.02
2022-11-06T09:17:24.683Z,18.20
2022-11-06T09:19:51.912Z,16.88
2022-11-06T09:22:19.387Z,15.93
2022-11-06T09:25:03.789Z,14.20
2022-11-06T09:27:32.047Z,14.68
2022-11-06T09:29:58.673Z,15.90
2022-11-06T09:32:25.294Z,14.27
2022-11-06T09:34:52.054Z,14.45
2022-11-06T09:37:18.670Z,13.45
2022-11-06T09:39:45.198Z,12.98
2022-11-06T09:42:38.398Z,15.25
2022-11-06T09:45:22.818Z,13.05
2022-11-06T09:48:09.603Z,13.32
2022-11-06T09:50:41.837Z,12.05
2022-11-06T09:53:19.656Z,13.30
2022-11-06T09:55:48.676Z,14.05
2022-11-06T09:58:30.737Z,13.80
2022-11-06T10:01:00.509Z,11.95
2022-11-06T10:03:39.963Z,12.85
2022-11-06T10:06:06.610Z,11.27
2022-11-06T10:08:34.077Z,11.00
2022-11-06T10:11:15.537Z,9.63
2022-11-06T10:14:03.651Z,7.35
2022-11-06T10:16:56.134Z,9.50
2022-11-06T10:19:37.185Z,9.45
2022-11-06T10:22:37.157Z,9.80
2022-11-06T10:25:22.179Z,9.85
2022-11-06T10:28:00.849Z,9.75
2022-11-06T10:30:37.168Z,8.85
2022-11-06T10:33:10.442Z,9.23
2022-11-06T10:35:46.890Z,8.95
2022-11-06T10:38:16.060Z,8.98
2022-11-06T10:40:49.305Z,8.82
2022-11-06T10:43:36.012Z,9.35
2022-11-06T10:46:23.952Z,8.55
2022-11-06T10:48:55.735Z,8.30
2022-11-06T10:51:28.028Z,5.95
2022-11-06T10:53:57.631Z,5.40
2022-11-06T10:57:10.326Z,5.95
2022-11-06T10:59:37.072Z,3.90
2022-11-06T11:02:03.909Z,4.13
2022-11-06T11:04:32.549Z,5.15
2022-11-06T11:07:18.817Z,5.50
2022-11-06T11:09:49.636Z,6.68
2022-11-06T11:12:22.813Z,6.28
2022-11-06T11:15:12.180Z,5.75
2022-11-06T11:17:39.947Z,5.68
2022-11-06T11:20:33.449Z,5.93
2022-11-06T11:23:22.948Z,5.60
2022-11-06T11:25:51.141Z,3.78
2022-11-06T11:28:33.460Z,4.82
2022-11-06T11:31:13.224Z,6.70
2022-11-06T11:33:41.781Z,5.55
2022-11-06T11:36:10.284Z,8.15
2022-11-06T11:38:41.483Z,7.43
2022-11-06T11:41:28.317Z,7.60
2022-11-06T11:44:17.153Z,7.13
2022-11-06T11:46:54.913Z,8.27
2022-11-06T11:49:33.366Z,10.20
2022-11-06T11:52:03.043Z,10.48
2022-11-06T11:54:35.846Z,10.45
2022-11-06T11:57:17.317Z,6.70
2022-11-06T11:59:51.838Z,10.27
2022-11-06T12:02:30.036Z,7.57
2022-11-06T12:05:02.290Z,9.00
2022-11-06T12:07:46.193Z,5.32
2022-11-06T12:10:18.972Z,9.48
2022-11-06T12:12:51.340Z,6.18
2022-11-06T12:15:19.560Z,8.43
2022-11-06T12:18:01.122Z,7.22
2022-11-06T12:20:55.102Z,6.50
2022-11-06T12:23:32.359Z,5.90
2022-11-06T12:26:26.421Z,6.07
2022-11-06T12:29:03.693Z,4.97
2022-11-06T12:31:39.615Z,5.68
2022-11-06T12:34:17.700Z,5.65
2022-11-06T12:36:53.113Z,4.63
2022-11-06T12:39:27.825Z,3.90
2022-11-06T12:41:56.775Z,4.55
2022-11-06T12:44:23.516Z,4.53
2022-11-06T12:47:05.377Z,4.70
2022-11-06T12:49:50.431Z,6.30
2022-11-06T12:53:05.000Z,5.65
2022-11-06T12:56:07.626Z,4.55
2022-11-06T12:59:05.142Z,4.93
2022-11-06T13:01:42.254Z,4.50
2022-11-06T13:04:50.128Z,5.00
2022-11-06T13:07:34.812Z,4.55
2022-11-06T13:10:07.762Z,4.43
2022-11-06T13:12:37.135Z,5.07
2022-11-06T13:15:48.132Z,4.28
2022-11-06T13:18:43.165Z,4.50
2022-11-06T13:21:29.701Z,4.63
2022-11-06T13:24:03.278Z,4.13
2022-11-06T13:26:42.469Z,4.80
2022-11-06T13:29:15.669Z,4.50
2022-11-06T13:31:48.508Z,4.18
2022-11-06T13:34:38.156Z,5.00
2022-11-06T13:37:37.479Z,4.70
2022-11-06T13:40:20.544Z,4.80
2022-11-06T13:42:54.300Z,3.00
2022-11-06T13:45:23.312Z,3.97
2022-11-06T13:48:22.847Z,4.40
2022-11-06T13:50:49.456Z,4.32
2022-11-06T13:53:37.046Z,4.53
2022-11-06T13:56:24.718Z,4.90
2022-11-06T13:59:02.106Z,4.22
2022-11-06T14:01:56.219Z,3.70
2022-11-06T14:05:10.207Z,2.90
2022-11-06T14:07:39.195Z,3.90
2022-11-06T14:10:06.322Z,3.40
2022-11-06T14:12:32.887Z,3.10
2022-11-06T14:15:29.334Z,3.30
2022-11-06T14:17:58.690Z,3.08
2022-11-06T14:20:37.313Z,2.92
2022-11-06T14:23:29.057Z,3.85
2022-11-06T14:26:12.919Z,4.07
2022-11-06T14:28:41.921Z,4.55
2022-11-06T14:31:12.676Z,4.32
2022-11-06T14:33:40.661Z,4.32
2022-11-06T14:36:14.317Z,3.45
2022-11-06T14:38:42.646Z,3.00
2022-11-06T14:41:34.078Z,3.13
2022-11-06T14:44:05.558Z,2.78
2022-11-06T14:46:32.921Z,2.08
2022-11-06T14:49:18.643Z,1.65
2022-11-06T14:52:06.951Z,2.25
2022-11-06T14:54:37.699Z,1.27
2022-11-06T14:57:04.795Z,1.70
2022-11-06T14:59:35.249Z,1.27
2022-11-06T15:02:26.092Z,1.30
2022-11-06T15:05:03.938Z,1.70
2022-11-06T15:08:04.073Z,0.98
2022-11-06T15:10:42.981Z,1.45
2022-11-06T15:13:18.460Z,1.10
2022-11-06T15:15:47.686Z,1.90
2022-11-06T15:18:22.880Z,2.20
2022-11-06T15:20:58.641Z,1.27
2022-11-06T15:23:34.499Z,1.73
2022-11-06T15:26:03.011Z,1.98
2022-11-06T15:28:46.801Z,1.50
2022-11-06T15:31:17.723Z,1.60
2022-11-06T15:34:37.472Z,1.65
2022-11-06T15:37:11.960Z,1.77
2022-11-06T15:39:41.158Z,1.67
2022-11-06T15:42:13.444Z,2.03
2022-11-06T15:44:41.897Z,1.90
2022-11-06T15:47:29.709Z,2.30
2022-11-06T15:50:12.641Z,1.55
2022-11-06T15:52:40.252Z,1.42
2022-11-06T15:55:12.517Z,1.70
2022-11-06T15:57:39.106Z,1.80
2022-11-06T16:00:25.241Z,1.48
2022-11-06T16:02:59.036Z,1.92
2022-11-06T16:05:28.587Z,2.17
2022-11-06T16:07:57.513Z,2.15
2022-11-06T16:10:24.867Z,2.20
2022-11-06T16:12:53.685Z,1.60
2022-11-06T16:15:42.094Z,2.45
2022-11-06T16:18:16.197Z,2.60
2022-11-06T16:20:49.284Z,2.38
2022-11-06T16:23:20.173Z,1.98
2022-11-06T16:25:47.100Z,2.90
2022-11-06T16:28:24.273Z,2.92
2022-11-06T16:30:52.087Z,3.80
2022-11-06T16:33:23.498Z,3.80
2022-11-06T16:35:55.284Z,4.10
2022-11-06T16:38:40.864Z,4.53
2022-11-06T16:41:09.477Z,4.78
2022-11-06T16:43:36.259Z,4.93
2022-11-06T16:46:24.111Z,5.55
2022-11-06T16:48:50.653Z,5.72
2022-11-06T16:51:32.708Z,9.80
2022-11-06T16:54:01.684Z,11.68
2022-11-06T16:56:32.921Z,12.48
2022-11-06T16:59:09.087Z,11.77
2022-11-06T17:01:46.995Z,11.45
2022-11-06T17:04:22.722Z,10.55
2022-11-06T17:06:51.179Z,10.98
2022-11-06T17:09:28.069Z,12.32
2022-11-06T17:11:55.989Z,13.27
2022-11-06T17:14:24.138Z,13.00
2022-11-06T17:16:54.161Z,12.65
2022-11-06T17:19:21.759Z,11.65
2022-11-06T17:21:49.643Z,9.00
2022-11-06T17:24:45.845Z,9.13
2022-11-06T17:27:03.441Z,9.25
2022-11-06T17:29:30.049Z,10.10
2022-11-06T17:31:56.732Z,9.30
2022-11-06T17:34:23.330Z,9.60
2022-11-06T17:36:50.204Z,9.77
2022-11-06T17:39:16.916Z,10.10
2022-11-06T17:41:43.546Z,10.82
2022-11-06T17:44:15.555Z,11.18
2022-11-06T17:46:45.136Z,10.27
2022-11-06T17:49:17.639Z,11.02
2022-11-06T17:52:00.542Z,12.90
2022-11-06T17:54:32.112Z,14.48
2022-11-06T17:57:03.471Z,14.02
2022-11-06T17:59:31.064Z,16.50
2022-11-06T18:01:57.848Z,16.35
2022-11-06T18:04:26.789Z,15.68
2022-11-06T18:06:54.120Z,16.00
2022-11-06T18:09:23.571Z,13.77
2022-11-06T18:11:51.702Z,13.95
2022-11-06T18:14:19.466Z,13.95
2022-11-06T18:16:46.440Z,14.20
2022-11-06T18:19:16.875Z,14.30
2022-11-06T18:21:43.679Z,12.95
2022-11-06T18:24:10.448Z,13.70
2022-11-06T18:26:40.251Z,12.82
2022-11-06T18:29:07.725Z,12.65
2022-11-06T18:31:35.290Z,12.48
2022-11-06T18:34:02.984Z,11.38
2022-11-06T18:36:29.829Z,12.50
2022-11-06T18:38:56.386Z,12.00
2022-11-06T18:41:23.415Z,13.60
2022-11-06T18:43:54.813Z,13.38
2022-11-06T18:46:21.482Z,14.30
2022-11-06T18:48:48.189Z,15.63
2022-11-06T18:51:34.033Z,15.02
2022-11-06T18:54:05.216Z,15.32
2022-11-06T18:56:32.387Z,15.40
2022-11-06T18:58:59.421Z,14.63
2022-11-06T19:01:26.386Z,14.80
2022-11-06T19:03:53.499Z,15.88
2022-11-06T19:06:21.879Z,15.30
2022-11-06T19:08:49.152Z,16.58
2022-11-06T19:11:17.976Z,15.73
2022-11-06T19:13:48.244Z,17.02
2022-11-06T19:16:18.610Z,15.70
2022-11-06T19:18:45.609Z,15.63
2022-11-06T19:21:12.884Z,16.27
2022-11-06T19:23:41.932Z,16.10
2022-11-06T19:29:00.421Z,16.75
2022-11-06T19:31:30.488Z,16.52
2022-11-06T19:34:01.797Z,17.33
2022-11-06T19:36:29.151Z,16.77
2022-11-06T19:38:58.569Z,17.50
2022-11-06T19:41:26.602Z,17.02
2022-11-06T19:43:53.222Z,17.33
2022-11-06T19:46:25.730Z,16.73
2022-11-06T19:48:54.472Z,18.02
2022-11-06T19:51:21.107Z,17.65
2022-11-06T19:53:52.750Z,17.98
2022-11-06T19:56:19.677Z,18.58
2022-11-06T19:58:47.730Z,20.17
2022-11-06T20:01:14.647Z,20.20
2022-11-06T20:03:42.159Z,19.80
2022-11-06T20:06:09.252Z,19.60
2022-11-06T20:08:39.466Z,20.50
2022-11-06T20:11:08.995Z,21.50
2022-11-06T20:13:39.253Z,21.92
2022-11-06T20:16:08.073Z,23.98
2022-11-06T20:18:38.049Z,22.73
2022-11-06T20:21:07.065Z,24.02
2022-11-06T20:23:34.803Z,23.85
2022-11-06T20:26:01.790Z,23.25
2022-11-06T20:28:28.846Z,25.02
2022-11-06T20:30:56.495Z,25.60
2022-11-06T20:33:23.458Z,23.77
2022-11-06T20:35:50.098Z,24.33
2022-11-06T20:38:17.843Z,23.75
2022-11-06T20:40:45.210Z,24.42
2022-11-06T20:43:12.209Z,25.27
2022-11-06T20:45:39.901Z,24.33
2022-11-06T20:48:08.258Z,24.13
2022-11-06T20:50:35.149Z,25.90
2022-11-06T20:53:01.811Z,24.58
2022-11-06T20:55:29.248Z,24.85
2022-11-06T20:57:55.874Z,23.75
2022-11-06T21:00:22.790Z,24.70
2022-11-06T21:02:49.467Z,25.63
2022-11-06T21:05:16.190Z,25.42
2022-11-06T21:07:42.858Z,27.52
2022-11-06T21:10:11.044Z,27.38
2022-11-06T21:12:38.325Z,26.27
2022-11-06T21:15:05.451Z,26.88
2022-11-06T21:17:34.115Z,25.27
2022-11-06T21:20:00.801Z,24.88
2022-11-06T21:22:27.419Z,26.50
2022-11-06T21:24:55.228Z,26.17
2022-11-06T21:27:21.774Z,25.13
2022-11-06T21:29:48.361Z,25.70
2022-11-06T21:32:15.010Z,25.65
2022-11-06T21:34:41.627Z,24.23
2022-11-06T21:37:08.188Z,25.20
2022-11-06T21:39:36.576Z,25.75
2022-11-06T21:42:05.244Z,25.35
2022-11-06T21:44:32.359Z,26.60
2022-11-06T21:46:59.060Z,24.52
2022-11-06T21:49:25.742Z,24.05
2022-11-06T21:51:52.341Z,23.55
2022-11-06T21:54:37.521Z,23.73
2022-11-06T21:57:04.152Z,21.67
2022-11-06T21:59:30.823Z,21.00
2022-11-06T22:01:57.980Z,21.13
2022-11-06T22:04:24.695Z,21.67
2022-11-06T22:06:52.498Z,19.05
2022-11-06T22:09:24.429Z,19.35
2022-11-06T22:11:52.228Z,18.27
2022-11-06T22:14:18.765Z,19.08
2022-11-06T22:16:47.010Z,18.85
2022-11-06T22:19:15.988Z,17.92
2022-11-06T22:21:42.606Z,18.85
2022-11-06T22:24:11.670Z,18.40
2022-11-06T22:26:38.239Z,18.48
2022-11-06T22:29:10.782Z,19.05
2022-11-06T22:31:37.480Z,20.90
2022-11-06T22:34:04.579Z,20.58
2022-11-06T22:36:31.320Z,21.63
2022-11-06T22:38:59.709Z,22.05
2022-11-06T22:41:26.330Z,21.75
2022-11-06T22:43:58.814Z,22.08
2022-11-06T22:46:26.456Z,24.20
2022-11-06T22:48:53.838Z,23.02
2022-11-06T22:51:23.485Z,23.25
2022-11-06T22:53:50.884Z,23.10
2022-11-06T22:56:18.810Z,24.35
2022-11-06T22:58:45.486Z,24.17
2022-11-06T23:01:12.452Z,24.75
2022-11-06T23:03:40.880Z,24.58
2022-11-06T23:06:09.893Z,24.00
2022-11-06T23:08:42.924Z,24.55
2022-11-06T23:11:14.563Z,27.17
2022-11-06T23:13:41.332Z,25.13
2022-11-06T23:16:13.478Z,27.75
2022-11-06T23:18:40.030Z,29.00
2022-11-06T23:21:18.480Z,27.30
2022-11-06T23:23:45.623Z,28.15
2022-11-06T23:26:17.667Z,27.20
2022-11-06T23:28:45.543Z,28.38
2022-11-06T23:31:15.127Z,24.50
2022-11-06T23:33:42.837Z,24.25
2022-11-06T23:36:12.505Z,22.27
2022-11-06T23:38:39.831Z,21.92
2022-11-06T23:41:33.540Z,22.77
2022-11-06T23:44:00.754Z,21.83
2022-11-06T23:46:33.121Z,22.02
2022-11-06T23:49:00.283Z,22.63
2022-11-06T23:51:27.802Z,23.80
2022-11-06T23:53:54.806Z,23.65
2022-11-06T23:56:21.651Z,24.15
2022-11-06T23:58:48.361Z,23.38
